createdAt,value
2023-04-19T00:00:18.311Z,60.67
2023-04-19T00:01:18.294Z,58.86
2023-04-19T00:02:18.410Z,57.93
2023-04-19T00:03:18.437Z,58.51
2023-04-19T00:04:18.547Z,58.18
2023-04-19T00:05:18.270Z,48.30
2023-04-19T00:06:18.252Z,48.32
2023-04-19T00:07:18.265Z,56.14
2023-04-19T00:08:18.232Z,45.70
2023-04-19T00:09:18.230Z,60.35
2023-04-19T00:10:18.223Z,59.80
2023-04-19T00:11:18.217Z,56.78
2023-04-19T00:12:18.239Z,57.98
2023-04-19T00:13:18.199Z,62.67
2023-04-19T00:14:18.449Z,46.68
2023-04-19T00:15:18.187Z,50.09
2023-04-19T00:16:18.221Z,48.42
2023-04-19T00:17:18.198Z,47.99
2023-04-19T00:18:18.160Z,62.76
2023-04-19T00:19:18.143Z,53.55
2023-04-19T00:20:18.152Z,58.25
2023-04-19T00:21:18.148Z,46.58
2023-04-19T00:22:18.165Z,55.28
2023-04-19T00:23:18.126Z,54.22
2023-04-19T00:24:18.129Z,52.96
2023-04-19T00:25:18.117Z,63.60
2023-04-19T00:26:18.120Z,60.01
2023-04-19T00:27:18.122Z,48.93
2023-04-19T00:28:18.085Z,58.61
2023-04-19T00:29:18.086Z,51.20
2023-04-19T00:30:18.073Z,62.44
2023-04-19T00:31:18.104Z,56.81
2023-04-19T00:32:18.076Z,55.37
2023-04-19T00:33:18.044Z,64.19
2023-04-19T00:34:18.043Z,60.30
2023-04-19T00:35:19.038Z,51.08
2023-04-19T00:36:18.021Z,58.53
2023-04-19T00:37:18.043Z,67.54
2023-04-19T00:38:18.007Z,55.84
2023-04-19T00:39:18.004Z,54.99
2023-04-19T00:40:17.993Z,64.59
2023-04-19T00:41:17.978Z,52.96
2023-04-19T00:42:17.999Z,51.13
2023-04-19T00:43:17.974Z,47.93
2023-04-19T00:44:17.954Z,54.85
2023-04-19T00:45:17.943Z,46.97
2023-04-19T00:46:18.012Z,53.22
2023-04-19T00:47:17.955Z,65.85
2023-04-19T00:48:17.933Z,52.31
2023-04-19T00:49:17.917Z,57.38
2023-04-19T00:50:17.918Z,55.45
2023-04-19T00:51:17.909Z,62.73
2023-04-19T00:52:17.937Z,61.13
2023-04-19T00:53:17.885Z,47.35
2023-04-19T00:54:17.882Z,49.50
2023-04-19T00:55:17.888Z,49.06
2023-04-19T00:56:17.871Z,47.90
2023-04-19T00:57:17.890Z,52.63
2023-04-19T00:58:17.874Z,54.92
2023-04-19T00:59:17.830Z,58.36
2023-04-19T01:00:18.834Z,66.32
2023-04-19T01:01:17.867Z,58.92
2023-04-19T01:02:17.905Z,53.49
2023-04-19T01:03:17.896Z,53.00
2023-04-19T01:04:18.008Z,64.25
2023-04-19T01:05:17.797Z,53.70
2023-04-19T01:06:17.796Z,52.85
2023-04-19T01:07:17.910Z,51.45
2023-04-19T01:08:17.776Z,59.34
2023-04-19T01:09:17.762Z,58.46
2023-04-19T01:10:17.758Z,51.65
2023-04-19T01:11:17.744Z,46.07
2023-04-19T01:12:17.761Z,51.38
2023-04-19T01:13:17.731Z,50.71
2023-04-19T01:14:17.876Z,52.31
2023-04-19T01:15:17.710Z,49.23
2023-04-19T01:16:17.774Z,48.11
2023-04-19T01:17:17.715Z,49.10
2023-04-19T01:18:17.701Z,50.33
2023-04-19T01:19:17.685Z,52.99
2023-04-19T01:20:17.679Z,50.72
2023-04-19T01:21:17.669Z,49.85
2023-04-19T01:22:17.691Z,53.66
2023-04-19T01:23:17.648Z,52.31
2023-04-19T01:24:17.753Z,50.52
2023-04-19T01:25:17.627Z,58.45
2023-04-19T01:26:17.616Z,61.59
2023-04-19T01:27:17.644Z,54.73
2023-04-19T01:28:17.612Z,47.25
2023-04-19T01:29:17.611Z,57.43
2023-04-19T01:30:17.593Z,65.52
2023-04-19T01:31:17.623Z,51.01
2023-04-19T01:32:17.606Z,58.57
2023-04-19T01:33:17.574Z,56.57
2023-04-19T01:34:17.567Z,65.28
2023-04-19T01:35:17.576Z,63.22
2023-04-19T01:36:17.553Z,56.14
2023-04-19T01:37:17.567Z,50.13
2023-04-19T01:38:17.531Z,58.07
2023-04-19T01:39:17.522Z,53.02
2023-04-19T01:40:17.513Z,60.63
2023-04-19T01:41:17.517Z,64.80
2023-04-19T01:42:17.569Z,59.87
2023-04-19T01:43:17.518Z,52.48
2023-04-19T01:44:17.579Z,49.37
2023-04-19T01:45:17.474Z,61.14
2023-04-19T01:46:17.549Z,64.51
2023-04-19T01:47:17.506Z,63.47
2023-04-19T01:48:17.458Z,60.61
2023-04-19T01:49:17.460Z,63.03
2023-04-19T01:50:17.455Z,67.80
2023-04-19T01:51:17.447Z,56.56
2023-04-19T01:52:17.462Z,56.46
2023-04-19T01:53:17.475Z,53.08
2023-04-19T01:54:17.612Z,60.26
2023-04-19T01:55:17.421Z,66.10
2023-04-19T01:56:17.403Z,58.70
2023-04-19T01:57:17.431Z,66.10
2023-04-19T01:58:17.388Z,53.14
2023-04-19T01:59:17.373Z,59.02
2023-04-19T02:00:17.366Z,51.99
2023-04-19T02:01:17.375Z,59.01
2023-04-19T02:02:17.410Z,58.33
2023-04-19T02:03:17.621Z,54.86
2023-04-19T02:04:17.665Z,63.73
2023-04-19T02:05:17.330Z,62.64
2023-04-19T02:06:17.326Z,48.86
2023-04-19T02:07:17.319Z,54.28
2023-04-19T02:08:17.334Z,59.12
2023-04-19T02:09:17.317Z,61.87
2023-04-19T02:10:17.293Z,66.67
2023-04-19T02:11:17.279Z,52.85
2023-04-19T02:12:17.281Z,60.58
2023-04-19T02:13:17.292Z,56.54
2023-04-19T02:14:17.473Z,48.92
2023-04-19T02:15:17.259Z,47.84
2023-04-19T02:16:17.291Z,54.64
2023-04-19T02:17:17.252Z,63.88
2023-04-19T02:18:17.257Z,59.12
2023-04-19T02:19:17.226Z,61.02
2023-04-19T02:20:17.241Z,59.83
2023-04-19T02:21:17.211Z,60.53
2023-04-19T02:22:17.216Z,54.17
2023-04-19T02:23:17.221Z,51.23
2023-04-19T02:24:17.491Z,48.85
2023-04-19T02:25:17.179Z,54.84
2023-04-19T02:26:17.175Z,60.93
2023-04-19T02:27:17.171Z,45.67
2023-04-19T02:28:17.179Z,45.51
2023-04-19T02:29:17.142Z,57.63
2023-04-19T02:30:17.141Z,57.67
2023-04-19T02:31:17.164Z,60.42
2023-04-19T02:32:18.124Z,61.80
2023-04-19T02:33:17.147Z,57.41
2023-04-19T02:34:17.371Z,57.72
2023-04-19T02:35:17.116Z,57.72
2023-04-19T02:36:17.093Z,60.02
2023-04-19T02:37:17.078Z,65.06
2023-04-19T02:38:17.102Z,54.30
2023-04-19T02:39:17.072Z,62.76
2023-04-19T02:40:17.061Z,58.61
2023-04-19T02:41:17.100Z,64.42
2023-04-19T02:42:17.049Z,61.01
2023-04-19T02:43:17.070Z,55.24
2023-04-19T02:44:17.185Z,61.99
2023-04-19T02:45:17.019Z,59.44
2023-04-19T02:46:17.035Z,65.85
2023-04-19T02:47:17.027Z,62.67
2023-04-19T02:48:16.994Z,57.61
2023-04-19T02:49:17.000Z,65.23
2023-04-19T02:50:16.980Z,58.72
2023-04-19T02:51:16.993Z,59.46
2023-04-19T02:52:17.006Z,59.18
2023-04-19T02:53:16.951Z,50.26
2023-04-19T02:54:17.135Z,65.23
2023-04-19T02:55:16.943Z,62.17
2023-04-19T02:56:16.935Z,53.67
2023-04-19T02:57:16.958Z,62.97
2023-04-19T02:58:16.911Z,59.53
2023-04-19T02:59:16.907Z,58.68
2023-04-19T03:00:16.896Z,63.84
2023-04-19T03:01:16.934Z,58.55
2023-04-19T03:02:16.898Z,56.82
2023-04-19T03:03:16.955Z,62.67
2023-04-19T03:04:17.111Z,64.55
2023-04-19T03:05:16.869Z,67.80
2023-04-19T03:06:17.860Z,57.13
2023-04-19T03:07:16.846Z,55.29
2023-04-19T03:08:16.863Z,60.27
2023-04-19T03:09:16.832Z,59.44
2023-04-19T03:10:16.829Z,61.65
2023-04-19T03:11:16.827Z,62.90
2023-04-19T03:12:16.801Z,60.63
2023-04-19T03:13:16.821Z,62.40
2023-04-19T03:14:16.963Z,67.87
2023-04-19T03:15:16.778Z,64.84
2023-04-19T03:16:16.832Z,61.55
2023-04-19T03:17:16.779Z,64.73
2023-04-19T03:18:16.781Z,63.27
2023-04-19T03:19:16.752Z,62.48
2023-04-19T03:20:16.741Z,62.40
2023-04-19T03:21:16.737Z,63.33
2023-04-19T03:22:16.720Z,62.85
2023-04-19T03:23:16.731Z,64.17
2023-04-19T03:24:16.875Z,59.55
2023-04-19T03:25:16.695Z,63.04
2023-04-19T03:26:16.691Z,64.26
2023-04-19T03:27:16.692Z,61.75
2023-04-19T03:28:16.706Z,64.64
2023-04-19T03:29:16.671Z,61.96
2023-04-19T03:30:16.664Z,65.05
2023-04-19T03:31:16.686Z,62.81
2023-04-19T03:32:16.641Z,67.22
2023-04-19T03:33:16.673Z,66.88
2023-04-19T03:34:16.780Z,62.81
2023-04-19T03:35:16.614Z,58.54
2023-04-19T03:36:16.625Z,67.83
2023-04-19T03:37:16.611Z,65.48
2023-04-19T03:38:16.644Z,62.53
2023-04-19T03:39:16.588Z,60.89
2023-04-19T03:40:16.586Z,67.07
2023-04-19T03:41:16.571Z,66.30
2023-04-19T03:42:16.572Z,63.38
2023-04-19T03:43:16.585Z,67.27
2023-04-19T03:44:16.728Z,64.81
2023-04-19T03:45:16.543Z,67.16
2023-04-19T03:46:16.573Z,64.78
2023-04-19T03:47:16.521Z,67.60
2023-04-19T03:48:16.541Z,72.04
2023-04-19T03:49:16.514Z,66.09
2023-04-19T03:50:16.499Z,64.97
2023-04-19T03:51:16.488Z,68.00
2023-04-19T03:52:16.487Z,64.19
2023-04-19T03:53:16.502Z,63.51
2023-04-19T03:54:16.638Z,64.31
2023-04-19T03:55:16.481Z,64.94
2023-04-19T03:56:16.446Z,66.34
2023-04-19T03:57:16.445Z,64.49
2023-04-19T03:58:16.461Z,71.91
2023-04-19T03:59:16.426Z,62.00
2023-04-19T04:00:16.420Z,64.25
2023-04-19T04:01:17.412Z,62.35
2023-04-19T04:02:16.484Z,61.96
2023-04-19T04:03:16.696Z,67.66
2023-04-19T04:04:16.701Z,64.28
2023-04-19T04:05:16.460Z,62.81
2023-04-19T04:06:16.365Z,68.79
2023-04-19T04:07:16.369Z,67.03
2023-04-19T04:08:16.390Z,64.26
2023-04-19T04:09:16.342Z,66.30
2023-04-19T04:10:16.340Z,65.49
2023-04-19T04:11:16.326Z,65.40
2023-04-19T04:12:16.330Z,68.60
2023-04-19T04:13:16.345Z,66.73
2023-04-19T04:14:16.432Z,67.91
2023-04-19T04:15:16.304Z,65.87
2023-04-19T04:16:16.320Z,68.09
2023-04-19T04:17:16.284Z,69.06
2023-04-19T04:18:16.322Z,65.61
2023-04-19T04:19:16.267Z,67.34
2023-04-19T04:20:16.250Z,63.72
2023-04-19T04:21:16.249Z,67.23
2023-04-19T04:22:16.238Z,69.36
2023-04-19T04:23:16.345Z,67.15
2023-04-19T04:24:16.355Z,64.86
2023-04-19T04:25:16.211Z,66.06
2023-04-19T04:26:16.204Z,66.78
2023-04-19T04:27:16.222Z,65.46
2023-04-19T04:28:16.228Z,66.43
2023-04-19T04:29:16.192Z,68.61
2023-04-19T04:30:16.188Z,66.10
2023-04-19T04:31:16.222Z,68.18
2023-04-19T04:32:16.176Z,67.17
2023-04-19T04:33:16.195Z,68.43
2023-04-19T04:34:16.472Z,67.45
2023-04-19T04:35:16.142Z,67.18
2023-04-19T04:36:16.137Z,65.11
2023-04-19T04:37:16.137Z,67.46
2023-04-19T04:38:23.985Z,64.72
2023-04-19T04:39:18.253Z,67.69
2023-04-19T04:40:16.128Z,67.25
2023-04-19T04:41:16.144Z,71.92
2023-04-19T04:42:16.113Z,67.42
2023-04-19T04:43:16.161Z,69.35
2023-04-19T04:44:16.084Z,70.85
2023-04-19T04:45:16.088Z,66.24
2023-04-19T04:46:16.108Z,68.52
2023-04-19T04:47:16.069Z,66.25
2023-04-19T04:48:16.075Z,61.79
2023-04-19T04:49:16.045Z,66.36
2023-04-19T04:50:16.035Z,66.84
2023-04-19T04:51:16.024Z,67.63
2023-04-19T04:52:16.027Z,69.54
2023-04-19T04:53:16.045Z,68.08
2023-04-19T04:54:16.130Z,64.24
2023-04-19T04:55:16.015Z,65.66
2023-04-19T04:56:16.016Z,68.61
2023-04-19T04:57:15.984Z,67.92
2023-04-19T04:58:16.547Z,68.02
2023-04-19T04:59:15.963Z,68.63
2023-04-19T05:00:15.952Z,68.78
2023-04-19T05:01:16.047Z,65.60
2023-04-19T05:02:15.973Z,66.74
2023-04-19T05:03:15.987Z,65.59
2023-04-19T05:04:16.085Z,68.51
2023-04-19T05:05:15.917Z,67.97
2023-04-19T05:06:15.912Z,66.00
2023-04-19T05:07:15.896Z,69.23
2023-04-19T05:08:15.916Z,67.85
2023-04-19T05:09:15.885Z,62.33
2023-04-19T05:10:15.877Z,69.79
2023-04-19T05:11:15.931Z,69.00
2023-04-19T05:12:16.863Z,67.19
2023-04-19T05:13:16.009Z,67.32
2023-04-19T05:14:16.075Z,67.97
2023-04-19T05:15:15.870Z,66.31
2023-04-19T05:16:15.852Z,70.18
2023-04-19T05:17:15.811Z,71.23
2023-04-19T05:18:15.850Z,66.45
2023-04-19T05:19:15.804Z,68.71
2023-04-19T05:20:15.802Z,69.24
2023-04-19T05:21:15.802Z,67.49
2023-04-19T05:22:15.776Z,66.65
2023-04-19T05:23:15.770Z,68.84
2023-04-19T05:24:16.025Z,66.08
2023-04-19T05:25:15.753Z,63.98
2023-04-19T05:26:15.748Z,67.26
2023-04-19T05:27:15.737Z,68.50
2023-04-19T05:28:15.741Z,70.51
2023-04-19T05:29:15.746Z,67.97
2023-04-19T05:30:15.725Z,68.55
2023-04-19T05:31:15.721Z,66.53
2023-04-19T05:32:15.694Z,68.22
2023-04-19T05:33:15.686Z,66.01
2023-04-19T05:34:15.960Z,69.16
2023-04-19T05:35:15.673Z,69.57
2023-04-19T05:36:15.669Z,69.99
2023-04-19T05:37:15.657Z,69.37
2023-04-19T05:38:15.651Z,66.19
2023-04-19T05:39:15.683Z,70.24
2023-04-19T05:40:15.636Z,69.05
2023-04-19T05:41:15.622Z,67.93
2023-04-19T05:42:16.649Z,68.28
2023-04-19T05:43:15.611Z,67.73
2023-04-19T05:44:15.850Z,69.65
2023-04-19T05:45:15.626Z,69.62
2023-04-19T05:46:15.611Z,68.87
2023-04-19T05:47:15.581Z,67.36
2023-04-19T05:48:15.568Z,64.86
2023-04-19T05:49:16.628Z,67.62
2023-04-19T05:50:15.583Z,66.85
2023-04-19T05:51:15.568Z,62.67
2023-04-19T05:52:15.550Z,66.83
2023-04-19T05:53:15.539Z,66.52
2023-04-19T05:54:15.948Z,69.31
2023-04-19T05:55:15.520Z,67.07
2023-04-19T05:56:16.529Z,67.95
2023-04-19T05:57:15.506Z,67.81
2023-04-19T05:58:15.505Z,66.82
2023-04-19T05:59:15.521Z,68.34
2023-04-19T06:00:15.490Z,63.66
2023-04-19T06:01:15.480Z,66.12
2023-04-19T06:02:15.542Z,64.23
2023-04-19T06:03:15.778Z,68.26
2023-04-19T06:04:16.031Z,60.27
2023-04-19T06:05:15.516Z,67.64
2023-04-19T06:06:15.529Z,62.31
2023-04-19T06:07:27.409Z,65.35
2023-04-19T06:08:17.442Z,63.92
2023-04-19T06:09:15.437Z,67.59
2023-04-19T06:10:15.414Z,67.53
2023-04-19T06:11:24.887Z,64.63
2023-04-19T06:12:17.382Z,63.39
2023-04-19T06:13:15.397Z,68.89
2023-04-19T06:14:15.641Z,67.05
2023-04-19T06:15:15.386Z,63.67
2023-04-19T06:16:15.401Z,67.26
2023-04-19T06:17:15.350Z,66.49
2023-04-19T06:18:19.698Z,69.54
2023-04-19T06:19:16.358Z,63.15
2023-04-19T06:20:15.333Z,66.88
2023-04-19T06:21:15.322Z,67.24
2023-04-19T06:22:15.311Z,65.06
2023-04-19T06:23:15.452Z,64.57
2023-04-19T06:24:15.499Z,70.34
2023-04-19T06:25:15.283Z,67.05
2023-04-19T06:26:15.275Z,65.91
2023-04-19T06:27:15.264Z,66.21
2023-04-19T06:28:15.264Z,68.37
2023-04-19T06:29:15.278Z,66.03
2023-04-19T06:30:15.278Z,65.02
2023-04-19T06:31:15.255Z,68.11
2023-04-19T06:32:15.231Z,67.47
2023-04-19T06:33:15.222Z,67.39
2023-04-19T06:34:15.578Z,62.75
2023-04-19T06:35:15.220Z,66.35
2023-04-19T06:36:15.197Z,67.91
2023-04-19T06:37:15.200Z,65.64
2023-04-19T06:38:15.189Z,66.73
2023-04-19T06:39:15.203Z,66.81
2023-04-19T06:40:15.170Z,63.43
2023-04-19T06:41:15.170Z,67.52
2023-04-19T06:42:15.148Z,65.61
2023-04-19T06:43:15.145Z,67.16
2023-04-19T06:44:15.491Z,63.99
2023-04-19T06:45:15.131Z,66.93
2023-04-19T06:46:15.157Z,67.06
2023-04-19T06:47:15.142Z,65.47
2023-04-19T06:48:15.112Z,66.51
2023-04-19T06:49:15.131Z,65.64
2023-04-19T06:50:15.089Z,67.31
2023-04-19T06:51:15.093Z,65.76
2023-04-19T06:52:15.075Z,67.07
2023-04-19T06:53:15.074Z,64.53
2023-04-19T06:54:15.099Z,68.88
2023-04-19T06:55:15.050Z,64.99
2023-04-19T06:56:15.057Z,63.64
2023-04-19T06:57:15.057Z,67.02
2023-04-19T06:58:15.038Z,68.27
2023-04-19T06:59:15.050Z,65.18
2023-04-19T07:00:15.024Z,68.36
2023-04-19T07:01:15.046Z,67.20
2023-04-19T07:02:15.064Z,63.39
2023-04-19T07:03:15.178Z,67.97
2023-04-19T07:04:15.726Z,62.36
2023-04-19T07:05:14.977Z,64.97
2023-04-19T07:06:14.958Z,66.32
2023-04-19T07:07:14.969Z,68.81
2023-04-19T07:08:14.948Z,67.45
2023-04-19T07:09:14.962Z,67.23
2023-04-19T07:10:14.930Z,63.13
2023-04-19T07:11:14.918Z,66.01
2023-04-19T07:12:14.913Z,68.87
2023-04-19T07:13:14.907Z,69.45
2023-04-19T07:14:15.252Z,64.50
2023-04-19T07:15:14.897Z,68.51
2023-04-19T07:16:14.986Z,65.82
2023-04-19T07:17:14.872Z,68.22
2023-04-19T07:18:14.868Z,67.24
2023-04-19T07:19:14.891Z,63.67
2023-04-19T07:20:14.867Z,64.92
2023-04-19T07:21:14.852Z,63.34
2023-04-19T07:22:15.269Z,66.50
2023-04-19T07:23:15.824Z,66.66
2023-04-19T07:24:14.958Z,66.48
2023-04-19T07:25:15.877Z,65.54
2023-04-19T07:26:14.801Z,66.47
2023-04-19T07:27:15.019Z,64.18
2023-04-19T07:28:14.781Z,66.11
2023-04-19T07:29:14.773Z,66.13
2023-04-19T07:30:14.789Z,66.36
2023-04-19T07:31:14.763Z,68.51
2023-04-19T07:32:14.785Z,65.02
2023-04-19T07:33:14.779Z,70.17
2023-04-19T07:34:14.985Z,65.66
2023-04-19T07:35:14.841Z,65.73
2023-04-19T07:36:14.721Z,63.77
2023-04-19T07:37:14.717Z,71.72
2023-04-19T07:38:14.697Z,70.50
2023-04-19T07:39:14.695Z,65.67
2023-04-19T07:40:14.734Z,65.12
2023-04-19T07:41:14.684Z,63.99
2023-04-19T07:42:14.675Z,64.21
2023-04-19T07:43:14.660Z,63.04
2023-04-19T07:44:15.074Z,66.98
2023-04-19T07:45:14.665Z,68.39
2023-04-19T07:46:14.655Z,66.88
2023-04-19T07:47:14.633Z,64.01
2023-04-19T07:48:14.627Z,64.14
2023-04-19T07:49:14.607Z,68.34
2023-04-19T07:50:14.630Z,67.95
2023-04-19T07:51:14.601Z,65.89
2023-04-19T07:52:14.589Z,67.93
2023-04-19T07:53:14.580Z,67.52
2023-04-19T07:54:14.940Z,62.82
2023-04-19T07:55:14.592Z,63.74
2023-04-19T07:56:14.555Z,67.89
2023-04-19T07:57:14.545Z,68.86
2023-04-19T07:58:14.535Z,63.91
2023-04-19T07:59:14.524Z,68.35
2023-04-19T08:00:14.553Z,68.65
2023-04-19T08:01:14.528Z,64.20
2023-04-19T08:02:14.654Z,67.37
2023-04-19T08:03:14.639Z,65.59
2023-04-19T08:04:14.660Z,67.58
2023-04-19T08:05:15.623Z,67.80
2023-04-19T08:06:14.473Z,64.90
2023-04-19T08:07:14.466Z,65.17
2023-04-19T08:08:14.452Z,64.83
2023-04-19T08:09:14.528Z,65.45
2023-04-19T08:10:14.479Z,65.26
2023-04-19T08:11:14.537Z,65.52
2023-04-19T08:12:23.101Z,65.48
2023-04-19T08:13:16.412Z,62.79
2023-04-19T08:14:27.120Z,65.84
2023-04-19T08:16:41.874Z,68.10
2023-04-19T08:17:23.830Z,67.22
2023-04-19T08:18:16.417Z,61.99
2023-04-19T08:19:14.374Z,63.99
2023-04-19T08:20:14.399Z,63.77
2023-04-19T08:21:14.357Z,63.78
2023-04-19T08:22:14.349Z,65.60
2023-04-19T08:23:21.530Z,69.28
2023-04-19T08:24:16.504Z,65.15
2023-04-19T08:25:14.355Z,67.91
2023-04-19T08:26:14.317Z,68.32
2023-04-19T08:27:14.313Z,63.46
2023-04-19T08:28:14.307Z,70.56
2023-04-19T08:29:14.303Z,66.69
2023-04-19T08:30:14.313Z,64.52
2023-04-19T08:31:14.287Z,63.17
2023-04-19T08:32:14.323Z,61.54
2023-04-19T08:33:14.288Z,65.91
2023-04-19T08:34:14.280Z,65.29
2023-04-19T08:35:14.279Z,61.04
2023-04-19T08:36:17.053Z,66.46
2023-04-19T08:37:15.239Z,70.34
2023-04-19T08:38:14.236Z,69.17
2023-04-19T08:39:24.810Z,64.49
2023-04-19T08:40:16.246Z,66.03
2023-04-19T08:41:14.213Z,65.23
2023-04-19T08:42:32.474Z,65.69
2023-04-19T08:43:16.191Z,64.58
2023-04-19T08:46:16.205Z,62.34
2023-04-19T08:47:23.557Z,67.56
2023-04-19T08:48:16.235Z,64.11
2023-04-19T08:49:14.412Z,66.17
2023-04-19T08:50:28.356Z,66.98
2023-04-19T08:51:16.140Z,61.28
2023-04-19T08:52:14.117Z,63.44
2023-04-19T08:53:24.917Z,65.41
2023-04-19T08:54:16.116Z,63.38
2023-04-19T08:55:14.119Z,65.73
2023-04-19T08:56:21.195Z,65.88
2023-04-19T08:57:16.073Z,68.17
2023-04-19T08:58:28.495Z,62.87
2023-04-19T08:59:18.565Z,65.38
2023-04-19T09:00:15.079Z,65.07
2023-04-19T09:01:26.152Z,63.03
2023-04-19T09:02:16.182Z,63.10
2023-04-19T09:03:14.188Z,68.49
2023-04-19T09:05:15.286Z,66.15
2023-04-19T09:06:14.140Z,63.54
2023-04-19T09:07:13.995Z,66.79
2023-04-19T09:08:14.408Z,66.93
2023-04-19T09:09:28.448Z,67.08
2023-04-19T09:10:15.996Z,67.35
2023-04-19T09:11:13.971Z,62.94
2023-04-19T09:12:13.952Z,67.24
2023-04-19T09:13:13.954Z,65.41
2023-04-19T09:14:13.949Z,66.61
2023-04-19T09:15:13.957Z,65.26
2023-04-19T09:16:13.988Z,66.10
2023-04-19T09:17:14.882Z,62.77
2023-04-19T09:18:13.916Z,66.19
2023-04-19T09:20:14.920Z,69.38
2023-04-19T09:21:13.884Z,66.92
2023-04-19T09:22:13.910Z,63.32
2023-04-19T09:23:13.870Z,64.21
2023-04-19T09:24:14.196Z,66.77
2023-04-19T09:25:41.461Z,64.26
2023-04-19T09:26:22.978Z,64.98
2023-04-19T09:27:15.834Z,66.34
2023-04-19T09:28:13.818Z,64.15
2023-04-19T09:29:13.933Z,68.26
2023-04-19T09:30:21.016Z,65.07
2023-04-19T09:32:15.830Z,63.82
2023-04-19T09:33:13.893Z,65.31
2023-04-19T09:34:13.966Z,63.00
2023-04-19T09:35:13.796Z,63.44
2023-04-19T09:36:14.667Z,67.90
2023-04-19T09:37:25.016Z,64.01
2023-04-19T09:38:15.741Z,65.14
2023-04-19T09:39:13.882Z,67.12
2023-04-19T09:40:13.757Z,64.56
2023-04-19T09:41:13.713Z,65.80
2023-04-19T09:42:14.672Z,65.62
2023-04-19T09:46:15.477Z,64.89
2023-04-19T09:47:13.689Z,67.68
2023-04-19T09:48:13.686Z,68.14
2023-04-19T09:49:23.089Z,67.63
2023-04-19T09:50:24.021Z,65.65
2023-04-19T09:51:15.780Z,65.88
2023-04-19T09:52:14.662Z,63.52
2023-04-19T09:53:13.629Z,70.46
2023-04-19T09:54:13.616Z,66.88
2023-04-19T09:55:24.917Z,66.17
2023-04-19T09:56:15.618Z,63.08
2023-04-19T09:57:13.594Z,64.57
2023-04-19T09:58:13.582Z,69.81
2023-04-19T09:59:20.886Z,66.04
2023-04-19T10:00:15.594Z,64.78
2023-04-19T10:01:15.864Z,62.42
2023-04-19T10:02:14.602Z,62.46
2023-04-19T10:03:13.648Z,64.76
2023-04-19T10:04:24.119Z,63.96
2023-04-19T10:05:20.422Z,64.82
2023-04-19T10:06:31.732Z,64.90
2023-04-19T10:08:14.544Z,67.16
2023-04-19T10:09:13.632Z,75.51
2023-04-19T10:10:20.413Z,63.59
2023-04-19T10:11:15.486Z,64.67
2023-04-19T10:12:31.087Z,65.57
2023-04-19T10:13:19.899Z,67.57
2023-04-19T10:14:15.468Z,64.32
2023-04-19T10:15:13.514Z,65.34
2023-04-19T10:16:19.602Z,63.04
2023-04-19T10:17:15.493Z,62.36
2023-04-19T10:18:13.434Z,65.55
2023-04-19T10:19:13.625Z,64.23
2023-04-19T10:20:13.439Z,66.91
2023-04-19T10:21:13.415Z,62.80
2023-04-19T10:22:13.403Z,59.79
2023-04-19T10:23:13.387Z,61.11
2023-04-19T10:24:13.378Z,61.12
2023-04-19T10:25:13.490Z,62.98
2023-04-19T10:26:13.366Z,66.80
2023-04-19T10:27:13.360Z,67.23
2023-04-19T10:28:13.354Z,61.59
2023-04-19T10:29:13.680Z,64.03
2023-04-19T10:30:13.361Z,63.48
2023-04-19T10:31:13.373Z,63.62
2023-04-19T10:32:13.354Z,64.77
2023-04-19T10:33:13.317Z,64.28
2023-04-19T10:34:13.300Z,65.06
2023-04-19T10:35:14.623Z,64.69
2023-04-19T10:36:13.296Z,63.30
2023-04-19T10:37:13.282Z,63.11
2023-04-19T10:38:13.317Z,65.50
2023-04-19T10:39:13.351Z,63.11
2023-04-19T10:40:13.284Z,65.25
2023-04-19T10:41:16.436Z,66.98
2023-04-19T10:42:14.248Z,65.49
2023-04-19T10:43:13.237Z,64.39
2023-04-19T10:44:13.243Z,65.94
2023-04-19T10:45:13.244Z,66.68
2023-04-19T10:46:13.253Z,63.92
2023-04-19T10:47:14.616Z,63.95
2023-04-19T10:48:13.196Z,69.37
2023-04-19T10:49:13.208Z,63.63
2023-04-19T10:50:13.266Z,65.44
2023-04-19T10:51:13.186Z,62.52
2023-04-19T10:52:13.163Z,63.36
2023-04-19T10:53:14.196Z,59.21
2023-04-19T10:54:13.151Z,66.37
2023-04-19T10:55:13.172Z,61.39
2023-04-19T10:56:13.128Z,68.55
2023-04-19T10:57:13.126Z,63.23
2023-04-19T10:58:13.123Z,62.82
2023-04-19T10:59:13.183Z,64.91
2023-04-19T11:00:13.163Z,64.57
2023-04-19T11:01:13.184Z,64.12
2023-04-19T11:02:13.148Z,62.81
2023-04-19T11:03:13.186Z,62.79
2023-04-19T11:04:13.136Z,63.24
2023-04-19T11:05:13.062Z,64.13
2023-04-19T11:06:13.084Z,64.27
2023-04-19T11:07:13.048Z,63.19
2023-04-19T11:08:13.033Z,64.38
2023-04-19T11:09:13.105Z,62.97
2023-04-19T11:10:13.221Z,66.29
2023-04-19T11:11:13.043Z,65.57
2023-04-19T11:12:13.007Z,64.64
2023-04-19T11:13:12.993Z,66.17
2023-04-19T11:14:13.050Z,64.71
2023-04-19T11:15:12.978Z,65.20
2023-04-19T11:16:13.051Z,66.33
2023-04-19T11:17:13.005Z,65.31
2023-04-19T11:18:13.365Z,62.92
2023-04-19T11:19:14.158Z,66.07
2023-04-19T11:20:12.944Z,64.02
2023-04-19T11:21:12.957Z,62.89
2023-04-19T11:22:12.928Z,69.58
2023-04-19T11:23:12.918Z,63.65
2023-04-19T11:24:12.917Z,66.34
2023-04-19T11:25:12.910Z,62.40
2023-04-19T11:26:12.936Z,62.16
2023-04-19T11:27:12.889Z,63.76
2023-04-19T11:28:12.875Z,64.05
2023-04-19T11:29:12.890Z,62.99
2023-04-19T11:30:12.879Z,65.43
2023-04-19T11:31:12.943Z,63.07
2023-04-19T11:32:12.849Z,65.89
2023-04-19T11:33:13.057Z,68.21
2023-04-19T11:34:12.846Z,64.01
2023-04-19T11:35:12.822Z,63.97
2023-04-19T11:36:12.808Z,66.81
2023-04-19T11:37:12.832Z,64.25
2023-04-19T11:38:12.787Z,61.81
2023-04-19T11:39:12.780Z,65.89
2023-04-19T11:40:12.776Z,65.81
2023-04-19T11:41:12.770Z,66.07
2023-04-19T11:42:12.791Z,62.53
2023-04-19T11:43:12.751Z,61.60
2023-04-19T11:44:12.736Z,65.49
2023-04-19T11:45:25.826Z,67.08
2023-04-19T11:46:14.791Z,64.54
2023-04-19T11:47:13.743Z,66.28
2023-04-19T11:48:12.766Z,62.86
2023-04-19T11:49:12.746Z,63.92
2023-04-19T11:50:12.696Z,66.29
2023-04-19T11:51:12.685Z,67.96
2023-04-19T11:52:12.717Z,69.04
2023-04-19T11:53:12.678Z,65.40
2023-04-19T11:54:12.675Z,64.78
2023-04-19T11:55:12.666Z,69.42
2023-04-19T11:56:12.657Z,70.94
2023-04-19T11:57:12.671Z,66.43
2023-04-19T11:58:12.645Z,68.08
2023-04-19T11:59:12.633Z,65.81
2023-04-19T12:00:12.661Z,66.39
2023-04-19T12:01:12.606Z,64.02
2023-04-19T12:02:12.667Z,66.19
2023-04-19T12:03:12.739Z,64.16
2023-04-19T12:04:12.781Z,67.05
2023-04-19T12:05:12.936Z,65.41
2023-04-19T12:06:12.600Z,64.24
2023-04-19T12:07:12.585Z,64.27
2023-04-19T12:08:12.557Z,63.27
2023-04-19T12:09:12.544Z,63.29
2023-04-19T12:10:12.536Z,63.47
2023-04-19T12:11:12.527Z,64.69
2023-04-19T12:12:12.547Z,64.86
2023-04-19T12:13:12.514Z,66.62
2023-04-19T12:14:12.504Z,65.99
2023-04-19T12:15:12.495Z,65.79
2023-04-19T12:16:12.526Z,64.62
2023-04-19T12:17:12.521Z,64.20
2023-04-19T12:18:12.496Z,65.89
2023-04-19T12:19:12.469Z,66.19
2023-04-19T12:20:12.453Z,78.19
2023-04-19T12:21:12.491Z,68.75
2023-04-19T12:22:12.466Z,66.07
2023-04-19T12:23:12.428Z,65.62
2023-04-19T12:24:12.432Z,65.44
2023-04-19T12:25:12.423Z,68.31
2023-04-19T12:26:12.411Z,66.69
2023-04-19T12:27:12.419Z,66.98
2023-04-19T12:28:12.428Z,65.96
2023-04-19T12:29:12.379Z,66.15
2023-04-19T12:30:12.374Z,66.88
2023-04-19T12:31:12.365Z,64.48
2023-04-19T12:32:12.408Z,66.93
2023-04-19T12:33:12.374Z,69.26
2023-04-19T12:34:12.342Z,65.64
2023-04-19T12:35:12.354Z,65.09
2023-04-19T12:36:12.332Z,66.38
2023-04-19T12:37:12.329Z,64.83
2023-04-19T12:38:12.339Z,66.21
2023-04-19T12:39:12.306Z,64.27
2023-04-19T12:40:12.298Z,63.86
2023-04-19T12:41:12.291Z,63.66
2023-04-19T12:42:12.281Z,67.10
2023-04-19T12:43:12.296Z,64.89
2023-04-19T12:44:12.284Z,66.07
2023-04-19T12:45:12.257Z,66.16
2023-04-19T12:46:12.272Z,68.52
2023-04-19T12:47:12.242Z,69.22
2023-04-19T12:48:12.267Z,67.85
2023-04-19T12:49:12.220Z,66.95
2023-04-19T12:50:12.228Z,67.20
2023-04-19T12:51:12.208Z,67.36
2023-04-19T12:52:12.216Z,66.97
2023-04-19T12:53:12.278Z,66.77
2023-04-19T12:54:12.186Z,68.11
2023-04-19T12:55:12.177Z,64.66
2023-04-19T12:56:12.169Z,63.99
2023-04-19T12:57:12.175Z,67.95
2023-04-19T12:58:12.180Z,64.99
2023-04-19T12:59:12.150Z,62.88
2023-04-19T13:00:12.143Z,66.28
2023-04-19T13:01:12.172Z,64.97
2023-04-19T13:02:12.180Z,68.16